createdAt,value
2018-07-23T00:01:44.807Z,7.20
2018-07-23T00:04:14.789Z,6.50
2018-07-23T00:06:44.551Z,6.87
2018-07-23T00:09:14.664Z,6.50
2018-07-23T00:11:44.721Z,6.20
2018-07-23T00:14:14.919Z,8.53
2018-07-23T00:16:44.909Z,6.30
2018-07-23T00:19:17.335Z,7.20
2018-07-23T00:21:50.030Z,7.73
2018-07-23T00:24:19.924Z,8.23
2018-07-23T00:26:49.920Z,8.73
2018-07-23T00:29:20.334Z,6.57
2018-07-23T00:31:50.491Z,6.53
2018-07-23T00:34:22.232Z,5.93
2018-07-23T00:36:53.200Z,6.70
2018-07-23T00:39:23.303Z,7.47
2018-07-23T00:41:54.417Z,9.70
2018-07-23T00:44:24.624Z,6.80
2018-07-23T00:46:55.177Z,6.87
2018-07-23T00:49:25.049Z,7.67
2018-07-23T00:51:56.634Z,7.23
2018-07-23T00:54:25.739Z,7.07
2018-07-23T00:57:02.721Z,6.67
2018-07-23T00:59:32.840Z,7.23
2018-07-23T01:02:03.197Z,7.27
2018-07-23T01:04:32.993Z,8.43
2018-07-23T01:07:03.101Z,8.70
2018-07-23T01:09:33.365Z,7.10
2018-07-23T01:12:03.931Z,8.43
2018-07-23T01:14:34.481Z,8.60
2018-07-23T01:17:04.147Z,8.27
2018-07-23T01:19:33.989Z,8.03
2018-07-23T01:22:05.211Z,7.27
2018-07-23T01:24:34.942Z,7.77
2018-07-23T01:27:04.823Z,7.00
2018-07-23T01:29:34.562Z,8.90
2018-07-23T01:32:04.271Z,7.17
2018-07-23T01:34:34.062Z,7.20
2018-07-23T01:37:08.142Z,8.40
2018-07-23T01:39:37.854Z,7.73
2018-07-23T01:42:07.617Z,7.93
2018-07-23T01:44:37.885Z,8.23
2018-07-23T01:47:12.683Z,8.40
2018-07-23T01:49:43.198Z,8.33
2018-07-23T01:52:13.436Z,7.83
2018-07-23T01:54:43.501Z,8.03
2018-07-23T01:57:13.914Z,8.13
2018-07-23T01:59:43.741Z,7.70
2018-07-23T02:02:14.624Z,7.90
2018-07-23T02:04:44.845Z,7.60
2018-07-23T02:07:14.687Z,8.03
2018-07-23T02:09:45.001Z,7.80
2018-07-23T02:12:14.656Z,9.47
2018-07-23T02:14:44.525Z,11.83
2018-07-23T02:17:14.373Z,8.57
2018-07-23T02:19:44.521Z,13.17
2018-07-23T02:22:14.471Z,9.07
2018-07-23T02:24:44.797Z,10.47
2018-07-23T02:27:14.597Z,10.10
2018-07-23T02:29:44.890Z,10.27
2018-07-23T02:32:15.361Z,8.93
2018-07-23T02:34:44.955Z,10.20
2018-07-23T02:37:21.593Z,8.03
2018-07-23T02:39:51.662Z,8.87
2018-07-23T02:42:22.302Z,8.37
2018-07-23T02:44:52.234Z,8.53
2018-07-23T02:47:32.560Z,9.10
2018-07-23T02:50:02.452Z,13.13
2018-07-23T02:52:32.906Z,9.50
2018-07-23T02:55:04.022Z,9.90
2018-07-23T02:57:33.800Z,10.67
2018-07-23T03:00:04.456Z,9.23
2018-07-23T03:02:34.266Z,8.60
2018-07-23T03:05:05.465Z,8.53
2018-07-23T03:07:35.321Z,7.80
2018-07-23T03:10:06.071Z,11.17
2018-07-23T03:12:36.135Z,10.20
2018-07-23T03:15:07.331Z,7.40
2018-07-23T03:17:37.052Z,7.53
2018-07-23T03:20:14.177Z,9.57
2018-07-23T03:22:44.395Z,7.67
2018-07-23T03:25:14.523Z,9.27
2018-07-23T03:27:44.593Z,8.93
2018-07-23T03:30:14.709Z,8.30
2018-07-23T03:32:44.480Z,8.17
2018-07-23T03:35:13.821Z,9.70
2018-07-23T03:37:43.665Z,8.10
2018-07-23T03:40:13.840Z,8.17
2018-07-23T03:42:44.062Z,10.77
2018-07-23T03:45:13.950Z,10.47
2018-07-23T03:47:43.528Z,9.80
2018-07-23T03:50:17.223Z,11.70
2018-07-23T03:52:47.279Z,9.20
2018-07-23T03:55:17.561Z,10.80
2018-07-23T03:57:47.425Z,8.70
2018-07-23T04:00:18.009Z,8.57
2018-07-23T04:02:47.817Z,8.37
2018-07-23T04:05:18.830Z,9.80
2018-07-23T04:07:49.172Z,9.53
2018-07-23T04:10:20.990Z,8.13
2018-07-23T04:12:51.690Z,9.10
2018-07-23T04:15:21.869Z,12.03
2018-07-23T04:17:58.720Z,9.87
2018-07-23T04:20:28.794Z,9.13
2018-07-23T04:22:59.366Z,9.70
2018-07-23T04:25:29.646Z,9.53
2018-07-23T04:27:59.622Z,10.90
2018-07-23T04:30:30.223Z,11.13
2018-07-23T04:33:00.208Z,9.83
2018-07-23T04:35:30.526Z,10.53
2018-07-23T04:38:00.435Z,9.27
2018-07-23T04:40:30.630Z,11.50
2018-07-23T04:43:00.345Z,9.83
2018-07-23T04:45:30.153Z,9.87
2018-07-23T04:47:59.841Z,10.93
2018-07-23T04:50:29.566Z,11.23
2018-07-23T04:52:59.529Z,10.57
2018-07-23T04:55:29.498Z,14.57
2018-07-23T04:58:00.080Z,10.80
2018-07-23T05:00:29.965Z,12.97
2018-07-23T05:02:59.809Z,11.87
2018-07-23T05:05:30.210Z,14.17
2018-07-23T05:08:00.329Z,11.60
2018-07-23T05:10:30.616Z,11.83
2018-07-23T05:13:00.126Z,14.47
2018-07-23T05:15:30.506Z,15.70
2018-07-23T05:18:00.080Z,13.23
2018-07-23T05:20:30.252Z,13.33
2018-07-23T05:23:00.138Z,11.57
2018-07-23T05:25:34.001Z,12.83
2018-07-23T05:28:05.024Z,12.17
2018-07-23T05:30:35.347Z,11.83
2018-07-23T05:33:05.234Z,13.33
2018-07-23T05:35:35.837Z,13.07
2018-07-23T05:38:05.447Z,13.13
2018-07-23T05:40:35.602Z,11.80
2018-07-23T05:43:05.554Z,14.63
2018-07-23T05:45:35.720Z,12.90
2018-07-23T05:48:05.666Z,14.00
2018-07-23T05:50:35.944Z,13.33
2018-07-23T05:53:05.728Z,13.20
2018-07-23T05:55:40.660Z,16.33
2018-07-23T05:58:11.059Z,15.70
2018-07-23T06:00:40.939Z,15.87
2018-07-23T06:03:10.679Z,19.57
2018-07-23T06:05:40.609Z,18.13
2018-07-23T06:08:11.065Z,17.90
2018-07-23T06:10:40.854Z,17.53
2018-07-23T06:13:14.249Z,16.10
2018-07-23T06:15:44.022Z,19.97
2018-07-23T06:18:13.649Z,19.37
2018-07-23T06:20:43.600Z,19.30
2018-07-23T06:23:14.288Z,16.33
2018-07-23T06:25:44.135Z,15.73
2018-07-23T06:28:13.690Z,17.17
2018-07-23T06:30:43.495Z,17.17
2018-07-23T06:33:13.521Z,18.47
2018-07-23T06:35:46.267Z,16.63
2018-07-23T06:38:16.026Z,17.57
2018-07-23T06:40:46.740Z,17.57
2018-07-23T06:43:16.438Z,17.97
2018-07-23T06:45:46.594Z,17.03
2018-07-23T06:48:16.467Z,18.63
2018-07-23T06:50:46.247Z,15.70
2018-07-23T06:53:16.204Z,15.87
2018-07-23T06:55:46.500Z,17.80
2018-07-23T06:58:16.083Z,18.20
2018-07-23T07:00:47.669Z,17.20
2018-07-23T07:03:17.558Z,16.27
2018-07-23T07:05:46.923Z,16.07
2018-07-23T07:08:16.817Z,15.60
2018-07-23T07:10:46.713Z,14.80
2018-07-23T07:13:16.150Z,19.67
2018-07-23T07:15:46.393Z,16.30
2018-07-23T07:18:16.202Z,19.83
2018-07-23T07:20:45.719Z,17.47
2018-07-23T07:23:15.856Z,18.53
2018-07-23T07:25:45.456Z,17.47
2018-07-23T07:28:18.802Z,15.87
2018-07-23T07:30:48.214Z,14.53
2018-07-23T07:33:17.716Z,15.30
2018-07-23T07:35:46.441Z,17.13
2018-07-23T07:38:26.832Z,19.27
2018-07-23T07:40:56.420Z,17.83
2018-07-23T07:43:31.036Z,25.43
2018-07-23T07:46:01.312Z,19.53
2018-07-23T07:48:31.087Z,23.63
2018-07-23T07:51:00.613Z,21.10
2018-07-23T07:53:30.907Z,24.00
2018-07-23T07:56:01.267Z,16.07
2018-07-23T07:58:31.149Z,17.77
2018-07-23T08:01:00.922Z,19.57
2018-07-23T08:03:31.564Z,22.80
2018-07-23T08:06:01.708Z,19.07
2018-07-23T08:08:36.134Z,21.87
2018-07-23T08:11:06.073Z,19.53
2018-07-23T08:13:35.883Z,17.13
2018-07-23T08:16:05.413Z,17.40
2018-07-23T08:18:35.481Z,16.13
2018-07-23T08:21:04.948Z,16.10
2018-07-23T08:23:41.380Z,13.80
2018-07-23T08:26:11.266Z,14.17
2018-07-23T08:28:41.127Z,16.33
2018-07-23T08:31:10.412Z,14.27
2018-07-23T08:33:41.352Z,17.17
2018-07-23T08:36:11.030Z,13.40
2018-07-23T08:38:40.466Z,15.23
2018-07-23T08:41:10.125Z,11.77
2018-07-23T08:43:40.131Z,10.73
2018-07-23T08:46:09.648Z,15.33
2018-07-23T08:48:39.345Z,13.73
2018-07-23T08:51:09.386Z,20.30
2018-07-23T08:53:39.163Z,13.27
2018-07-23T08:56:10.331Z,15.10
2018-07-23T08:58:50.283Z,18.37
2018-07-23T09:01:20.005Z,14.87
2018-07-23T09:03:50.119Z,16.37
2018-07-23T09:06:20.165Z,13.57
2018-07-23T09:08:49.675Z,15.27
2018-07-23T09:11:21.236Z,14.43
2018-07-23T09:13:51.456Z,18.80
2018-07-23T09:16:20.992Z,19.17
2018-07-23T09:18:50.390Z,16.13
2018-07-23T09:21:20.087Z,16.50
2018-07-23T09:23:49.785Z,14.13
2018-07-23T09:26:28.584Z,17.37
2018-07-23T09:28:59.220Z,14.03
2018-07-23T09:31:28.706Z,14.73
2018-07-23T09:34:00.830Z,15.18
2018-07-23T09:36:30.316Z,19.20
2018-07-23T09:39:00.423Z,15.45
2018-07-23T09:41:30.238Z,20.32
2018-07-23T09:44:00.461Z,21.40
2018-07-23T09:46:30.031Z,17.65
2018-07-23T09:48:59.930Z,15.85
2018-07-23T09:51:34.879Z,18.07
2018-07-23T09:54:04.360Z,16.82
2018-07-23T09:56:33.956Z,15.35
2018-07-23T09:59:03.579Z,19.20
2018-07-23T10:01:33.558Z,14.65
2018-07-23T10:04:13.719Z,18.67
2018-07-23T10:06:43.428Z,15.18
2018-07-23T10:09:13.595Z,14.68
2018-07-23T10:11:43.177Z,16.55
2018-07-23T10:14:12.890Z,15.23
2018-07-23T10:16:43.542Z,14.05
2018-07-23T10:19:13.607Z,16.30
2018-07-23T10:21:43.660Z,15.93
2018-07-23T10:24:13.304Z,17.55
2018-07-23T10:26:43.299Z,17.77
2018-07-23T10:29:12.837Z,15.50
2018-07-23T10:31:42.870Z,16.97
2018-07-23T10:34:12.771Z,16.40
2018-07-23T10:36:43.602Z,14.40
2018-07-23T10:39:13.088Z,19.02
2018-07-23T10:41:43.128Z,16.17
2018-07-23T10:44:12.558Z,14.03
2018-07-23T10:46:44.024Z,18.50
2018-07-23T10:49:13.635Z,19.60
2018-07-23T10:51:43.923Z,17.85
2018-07-23T10:54:13.709Z,14.10
2018-07-23T10:56:43.547Z,14.68
2018-07-23T10:59:13.045Z,14.15
2018-07-23T11:01:42.801Z,12.90
2018-07-23T11:04:12.006Z,14.00
2018-07-23T11:06:41.167Z,14.85
2018-07-23T11:09:12.031Z,12.73
2018-07-23T11:11:41.219Z,11.10
2018-07-23T11:14:10.939Z,13.53
2018-07-23T11:16:46.400Z,13.65
2018-07-23T11:19:15.539Z,17.87
2018-07-23T11:21:46.237Z,14.03
2018-07-23T11:24:15.355Z,12.37
2018-07-23T11:26:45.271Z,15.72
2018-07-23T11:29:15.027Z,15.83
2018-07-23T11:31:45.631Z,12.13
2018-07-23T11:34:15.561Z,12.45
2018-07-23T11:36:45.504Z,12.73
2018-07-23T11:39:15.483Z,14.65
2018-07-23T11:41:45.526Z,14.47
2018-07-23T11:44:15.424Z,16.02
2018-07-23T11:46:45.296Z,10.63
2018-07-23T11:49:19.530Z,12.28
2018-07-23T11:51:49.438Z,11.08
2018-07-23T11:54:19.031Z,10.63
2018-07-23T11:56:58.869Z,10.75
2018-07-23T11:59:28.482Z,10.50
2018-07-23T12:01:58.695Z,9.40
2018-07-23T12:04:27.837Z,10.38
2018-07-23T12:06:57.561Z,8.70
2018-07-23T12:09:26.736Z,10.15
2018-07-23T12:11:57.326Z,10.90
2018-07-23T12:14:26.571Z,9.23
2018-07-23T12:16:56.231Z,8.38
2018-07-23T12:19:26.573Z,9.00
2018-07-23T12:21:56.903Z,9.05
2018-07-23T12:24:26.577Z,7.67
2018-07-23T12:26:56.653Z,9.25
2018-07-23T12:29:25.799Z,10.65
2018-07-23T12:31:55.624Z,12.15
2018-07-23T12:34:25.255Z,12.70
2018-07-23T12:36:54.921Z,10.63
2018-07-23T12:39:23.957Z,12.98
2018-07-23T12:41:53.840Z,10.38
2018-07-23T12:44:23.103Z,8.78
2018-07-23T12:46:52.916Z,9.18
2018-07-23T12:49:22.624Z,8.05
2018-07-23T12:51:52.166Z,10.58
2018-07-23T12:54:21.617Z,7.85
2018-07-23T12:56:51.122Z,7.30
2018-07-23T12:59:20.272Z,7.20
2018-07-23T13:01:49.527Z,7.50
2018-07-23T13:04:19.381Z,7.58
2018-07-23T13:06:48.272Z,6.83
2018-07-23T13:09:17.429Z,5.60
2018-07-23T13:11:49.864Z,5.70
2018-07-23T13:14:19.214Z,7.92
2018-07-23T13:16:48.454Z,10.88
2018-07-23T13:19:18.508Z,8.10
2018-07-23T13:21:48.460Z,8.13
2018-07-23T13:24:17.968Z,6.95
2018-07-23T13:26:48.400Z,8.05
2018-07-23T13:29:17.720Z,10.08
2018-07-23T13:31:46.801Z,6.53
2018-07-23T13:34:16.280Z,7.80
2018-07-23T13:36:45.438Z,8.60
2018-07-23T13:39:15.452Z,6.00
2018-07-23T13:41:45.286Z,8.03
2018-07-23T13:44:14.602Z,5.75
2018-07-23T13:46:44.264Z,7.37
2018-07-23T13:49:14.127Z,8.83
2018-07-23T13:51:43.966Z,8.30
2018-07-23T13:54:14.787Z,7.83
2018-07-23T13:56:44.515Z,6.90
2018-07-23T13:59:16.451Z,5.50
2018-07-23T14:01:46.459Z,5.12
2018-07-23T14:04:16.279Z,8.05
2018-07-23T14:06:46.340Z,5.20
2018-07-23T14:09:16.121Z,5.70
2018-07-23T14:11:45.711Z,8.58
2018-07-23T14:14:15.932Z,6.08
2018-07-23T14:16:45.905Z,5.42
2018-07-23T14:19:15.489Z,5.70
2018-07-23T14:21:47.678Z,6.55
2018-07-23T14:24:18.327Z,6.08
2018-07-23T14:26:48.142Z,5.40
2018-07-23T14:29:18.106Z,5.22
2018-07-23T14:31:48.224Z,5.72
2018-07-23T14:34:18.715Z,9.35
2018-07-23T14:36:49.235Z,5.62
2018-07-23T14:39:19.193Z,7.65
2018-07-23T14:41:49.631Z,5.80
2018-07-23T14:44:20.090Z,4.97
2018-07-23T14:46:49.901Z,5.90
2018-07-23T14:49:19.395Z,6.25
2018-07-23T14:51:49.539Z,5.47
2018-07-23T14:54:18.822Z,5.65
2018-07-23T14:56:48.344Z,5.12
2018-07-23T14:59:19.454Z,5.60
2018-07-23T15:01:48.814Z,6.47
2018-07-23T15:04:18.896Z,5.20
2018-07-23T15:06:48.828Z,5.85
2018-07-23T15:09:18.346Z,5.30
2018-07-23T15:11:48.410Z,4.95
2018-07-23T15:14:17.906Z,6.10
2018-07-23T15:16:47.842Z,5.25
2018-07-23T15:19:17.803Z,5.85
2018-07-23T15:21:48.198Z,8.75
2018-07-23T15:24:17.472Z,5.95
2018-07-23T15:26:47.613Z,6.90
2018-07-23T15:29:26.031Z,6.95
2018-07-23T15:31:55.539Z,5.75
2018-07-23T15:34:25.548Z,5.28
2018-07-23T15:36:55.563Z,6.05
2018-07-23T15:39:25.409Z,5.58
2018-07-23T15:41:55.726Z,6.15
2018-07-23T15:44:25.063Z,5.53
2018-07-23T15:46:54.423Z,7.42
2018-07-23T15:49:23.509Z,5.30
2018-07-23T15:51:53.360Z,7.08
2018-07-23T15:54:23.055Z,4.65
2018-07-23T15:56:52.481Z,5.08
2018-07-23T15:59:22.385Z,4.50
2018-07-23T16:01:52.335Z,5.60
2018-07-23T16:04:22.761Z,5.47
2018-07-23T16:06:52.667Z,6.12
2018-07-23T16:09:21.915Z,4.97
2018-07-23T16:11:52.086Z,5.58
2018-07-23T16:14:21.990Z,6.05
2018-07-23T16:16:51.853Z,6.20
2018-07-23T16:19:21.419Z,8.38
2018-07-23T16:21:50.520Z,7.33
2018-07-23T16:24:20.234Z,8.05
2018-07-23T16:26:50.126Z,7.40
2018-07-23T16:29:19.570Z,7.87
2018-07-23T16:31:49.520Z,6.78
2018-07-23T16:34:19.363Z,6.67
2018-07-23T16:36:50.604Z,7.87
2018-07-23T16:39:20.948Z,7.37
2018-07-23T16:41:50.764Z,5.80
2018-07-23T16:44:20.579Z,48.70
2018-07-23T16:46:52.420Z,6.47
2018-07-23T16:49:22.571Z,5.10
2018-07-23T16:51:53.865Z,7.78
2018-07-23T16:54:22.835Z,6.47
2018-07-23T16:56:52.451Z,5.55
2018-07-23T16:59:22.303Z,7.65
2018-07-23T17:01:54.812Z,7.90
2018-07-23T17:04:24.614Z,7.45
2018-07-23T17:06:54.188Z,6.30
2018-07-23T17:09:24.014Z,4.45
2018-07-23T17:11:54.868Z,5.80
2018-07-23T17:14:24.256Z,5.75
2018-07-23T17:16:53.966Z,7.70
2018-07-23T17:19:23.867Z,7.47
2018-07-23T17:21:53.820Z,6.87
2018-07-23T17:24:23.720Z,5.58
2018-07-23T17:26:54.121Z,5.12
2018-07-23T17:29:23.573Z,6.12
2018-07-23T17:32:03.529Z,5.53
2018-07-23T17:34:33.601Z,7.87
2018-07-23T17:37:03.441Z,10.90
2018-07-23T17:39:34.167Z,7.53
2018-07-23T17:42:04.375Z,5.35
2018-07-23T17:44:34.742Z,10.98
2018-07-23T17:47:04.324Z,7.45
2018-07-23T17:49:35.371Z,8.18
2018-07-23T17:52:05.247Z,8.05
2018-07-23T17:54:35.668Z,9.10
2018-07-23T17:57:06.102Z,8.98
2018-07-23T17:59:36.260Z,10.38
2018-07-23T18:02:06.268Z,8.25
2018-07-23T18:04:36.664Z,6.90
2018-07-23T18:07:06.888Z,9.65
2018-07-23T18:09:37.246Z,7.05
2018-07-23T18:12:07.885Z,6.28
2018-07-23T18:14:37.991Z,7.60
2018-07-23T18:17:08.137Z,9.48
2018-07-23T18:19:39.581Z,7.35
2018-07-23T18:22:13.250Z,5.87
2018-07-23T18:24:44.686Z,6.30
2018-07-23T18:27:14.721Z,5.87
2018-07-23T18:29:44.652Z,9.78
2018-07-23T18:32:14.841Z,6.15
2018-07-23T18:34:49.598Z,5.42
2018-07-23T18:37:20.128Z,8.65
2018-07-23T18:39:50.345Z,6.33
2018-07-23T18:42:21.229Z,8.00
2018-07-23T18:44:51.086Z,8.33
2018-07-23T18:47:21.394Z,6.78
2018-07-23T18:49:57.992Z,10.05
2018-07-23T18:52:30.792Z,6.62
2018-07-23T18:55:01.901Z,5.87
2018-07-23T18:57:32.017Z,5.97
2018-07-23T19:00:02.227Z,6.63
2018-07-23T19:02:32.609Z,7.20
2018-07-23T19:05:03.084Z,8.83
2018-07-23T19:07:33.243Z,7.70
2018-07-23T19:10:03.127Z,6.43
2018-07-23T19:12:37.539Z,7.37
2018-07-23T19:15:07.622Z,10.60
2018-07-23T19:17:37.944Z,7.27
2018-07-23T19:20:11.988Z,7.80
2018-07-23T19:22:41.883Z,6.63
2018-07-23T19:25:11.834Z,6.97
2018-07-23T19:27:41.924Z,6.70
2018-07-23T19:30:12.478Z,9.53
2018-07-23T19:32:42.350Z,7.70
2018-07-23T19:35:12.166Z,7.00
2018-07-23T19:37:42.312Z,6.53
2018-07-23T19:40:12.476Z,9.23
2018-07-23T19:42:42.212Z,7.17
2018-07-23T19:45:11.560Z,7.37
2018-07-23T19:47:42.267Z,7.43
2018-07-23T19:50:12.340Z,8.63
2018-07-23T19:52:42.236Z,7.47
2018-07-23T19:55:13.471Z,7.20
2018-07-23T19:57:49.532Z,13.73
2018-07-23T20:00:19.636Z,8.77
2018-07-23T20:02:50.654Z,10.50
2018-07-23T20:05:20.905Z,7.90
2018-07-23T20:07:52.127Z,7.43
2018-07-23T20:10:25.821Z,7.43
2018-07-23T20:12:56.198Z,9.17
2018-07-23T20:15:27.225Z,8.87
2018-07-23T20:17:57.364Z,7.67
2018-07-23T20:20:28.146Z,11.63
2018-07-23T20:22:58.730Z,8.27
2018-07-23T20:25:30.184Z,8.33
2018-07-23T20:28:00.915Z,8.43
2018-07-23T20:30:31.137Z,10.03
2018-07-23T20:33:01.061Z,11.73
2018-07-23T20:35:31.282Z,8.90
2018-07-23T20:38:01.405Z,9.07
2018-07-23T20:40:31.855Z,10.07
2018-07-23T20:43:02.221Z,9.67
2018-07-23T20:45:42.105Z,10.63
2018-07-23T20:48:12.589Z,10.40
2018-07-23T20:50:43.512Z,9.77
2018-07-23T20:53:13.785Z,11.07
2018-07-23T20:55:45.894Z,11.10
2018-07-23T20:58:16.468Z,10.80
2018-07-23T21:00:47.132Z,11.93
2018-07-23T21:03:17.687Z,11.13
2018-07-23T21:05:48.201Z,11.13
2018-07-23T21:08:18.447Z,10.93
2018-07-23T21:10:48.977Z,12.43
2018-07-23T21:13:19.126Z,11.47
2018-07-23T21:15:50.606Z,11.53
2018-07-23T21:18:27.905Z,11.40
2018-07-23T21:20:58.824Z,13.43
2018-07-23T21:23:29.815Z,11.80
2018-07-23T21:26:04.277Z,11.60
2018-07-23T21:28:34.946Z,13.40
2018-07-23T21:31:05.922Z,11.00
2018-07-23T21:33:35.994Z,11.50
2018-07-23T21:36:09.007Z,14.27
2018-07-23T21:38:40.116Z,12.20
2018-07-23T21:41:10.882Z,15.87
2018-07-23T21:43:41.856Z,14.30
2018-07-23T21:46:12.242Z,11.63
2018-07-23T21:48:43.267Z,14.00
2018-07-23T21:51:13.508Z,11.83
2018-07-23T21:53:44.057Z,12.93
2018-07-23T21:56:16.984Z,12.53
2018-07-23T21:58:48.161Z,12.00
2018-07-23T22:01:18.538Z,13.33
2018-07-23T22:03:52.205Z,12.77
2018-07-23T22:06:23.923Z,13.00
2018-07-23T22:08:56.211Z,12.23
2018-07-23T22:11:26.663Z,12.53
2018-07-23T22:13:57.200Z,12.83
2018-07-23T22:16:27.816Z,12.40
2018-07-23T22:19:02.007Z,13.10
2018-07-23T22:21:33.335Z,13.13
2018-07-23T22:24:03.653Z,14.90
2018-07-23T22:26:35.173Z,12.77
2018-07-23T22:29:06.652Z,13.10
2018-07-23T22:31:38.138Z,13.73
2018-07-23T22:34:08.488Z,13.67
2018-07-23T22:36:39.768Z,21.10
2018-07-23T22:39:12.054Z,12.90
2018-07-23T22:41:42.145Z,13.13
2018-07-23T22:44:12.571Z,13.03
2018-07-23T22:46:43.263Z,13.17
2018-07-23T22:49:13.619Z,12.80
2018-07-23T22:51:43.993Z,14.07
2018-07-23T22:54:14.308Z,14.20
2018-07-23T22:56:45.152Z,12.93
2018-07-23T22:59:16.784Z,14.20
2018-07-23T23:01:47.603Z,13.67
2018-07-23T23:04:18.087Z,16.27
2018-07-23T23:06:48.821Z,14.13
2018-07-23T23:09:19.174Z,14.07
2018-07-23T23:11:49.444Z,14.03
2018-07-23T23:14:19.837Z,15.60
2018-07-23T23:16:50.201Z,14.33
2018-07-23T23:19:20.980Z,14.30
2018-07-23T23:21:51.681Z,15.03
2018-07-23T23:24:22.482Z,14.57
2018-07-23T23:26:53.212Z,23.37
2018-07-23T23:29:24.021Z,15.33
2018-07-23T23:31:55.147Z,14.53
2018-07-23T23:34:26.111Z,13.97
2018-07-23T23:36:57.162Z,14.17
2018-07-23T23:39:27.683Z,13.50
2018-07-23T23:41:59.028Z,13.90
2018-07-23T23:44:38.515Z,14.50
2018-07-23T23:47:09.776Z,14.67
2018-07-23T23:49:40.720Z,14.70
2018-07-23T23:52:11.799Z,15.13
2018-07-23T23:54:42.703Z,12.80
2018-07-23T23:57:13.068Z,15.33
2018-07-23T23:59:44.559Z,15.23
